createdAt,value
2018-02-22T00:01:22.670Z,26.97
2018-02-22T00:03:51.033Z,24.23
2018-02-22T00:06:19.389Z,23.10
2018-02-22T00:08:47.001Z,22.50
2018-02-22T00:11:14.574Z,25.40
2018-02-22T00:13:42.178Z,24.10
2018-02-22T00:16:09.773Z,25.20
2018-02-22T00:18:37.355Z,25.40
2018-02-22T00:21:04.963Z,20.67
2018-02-22T00:23:33.322Z,23.47
2018-02-22T00:26:00.917Z,23.87
2018-02-22T00:28:29.256Z,22.30
2018-02-22T00:30:56.840Z,25.60
2018-02-22T00:33:24.416Z,15.67
2018-02-22T00:35:52.009Z,22.10
2018-02-22T00:38:19.608Z,26.53
2018-02-22T00:40:47.206Z,24.03
2018-02-22T00:43:14.781Z,20.87
2018-02-22T00:45:42.373Z,27.83
2018-02-22T00:48:09.964Z,27.27
2018-02-22T00:50:38.324Z,27.60
2018-02-22T00:53:05.897Z,26.23
2018-02-22T00:55:33.495Z,23.33
2018-02-22T00:58:01.077Z,27.97
2018-02-22T01:00:28.687Z,22.50
2018-02-22T01:02:56.260Z,27.43
2018-02-22T01:05:23.894Z,25.53
2018-02-22T01:07:52.729Z,26.03
2018-02-22T01:10:20.325Z,28.03
2018-02-22T01:12:47.925Z,28.63
2018-02-22T01:15:15.518Z,26.50
2018-02-22T01:17:43.099Z,24.23
2018-02-22T01:20:10.715Z,30.73
2018-02-22T01:22:38.306Z,25.10
2018-02-22T01:25:05.908Z,25.57
2018-02-22T01:27:33.472Z,26.37
2018-02-22T01:30:01.060Z,28.70
2018-02-22T01:32:28.642Z,23.17
2018-02-22T01:34:56.816Z,24.57
2018-02-22T01:37:24.401Z,27.03
2018-02-22T01:39:52.003Z,28.07
2018-02-22T01:42:19.569Z,21.53
2018-02-22T01:44:47.169Z,24.23
2018-02-22T01:47:14.748Z,26.40
2018-02-22T01:49:42.344Z,24.93
2018-02-22T01:52:09.909Z,28.23
2018-02-22T01:54:37.498Z,26.87
2018-02-22T01:57:05.108Z,27.80
2018-02-22T01:59:32.673Z,29.03
2018-02-22T02:02:00.270Z,28.40
2018-02-22T02:04:28.619Z,27.10
2018-02-22T02:06:56.225Z,22.97
2018-02-22T02:09:23.820Z,21.60
2018-02-22T02:11:51.410Z,26.37
2018-02-22T02:14:18.993Z,30.87
2018-02-22T02:16:46.589Z,29.23
2018-02-22T02:19:14.180Z,27.70
2018-02-22T02:21:41.788Z,27.87
2018-02-22T02:24:10.130Z,27.07
2018-02-22T02:26:37.738Z,26.50
2018-02-22T02:29:05.898Z,23.60
2018-02-22T02:31:33.497Z,26.03
2018-02-22T02:34:01.103Z,28.73
2018-02-22T02:36:28.758Z,27.03
2018-02-22T02:38:56.357Z,25.23
2018-02-22T02:41:23.951Z,26.17
2018-02-22T02:43:51.530Z,22.50
2018-02-22T02:46:19.134Z,26.40
2018-02-22T02:48:46.722Z,25.30
2018-02-22T02:51:14.339Z,22.37
2018-02-22T02:53:42.691Z,23.20
2018-02-22T02:56:10.296Z,24.80
2018-02-22T02:58:37.867Z,25.13
2018-02-22T03:01:05.460Z,25.87
2018-02-22T03:03:33.040Z,21.33
2018-02-22T03:06:00.636Z,26.63
2018-02-22T03:08:28.225Z,26.60
2018-02-22T03:10:55.860Z,22.33
2018-02-22T03:13:23.444Z,25.33
2018-02-22T03:15:51.053Z,25.20
2018-02-22T03:18:19.390Z,26.67
2018-02-22T03:20:46.997Z,25.13
2018-02-22T03:23:14.580Z,21.30
2018-02-22T03:25:42.197Z,14.00
2018-02-22T03:28:09.774Z,23.40
2018-02-22T03:30:37.363Z,21.70
2018-02-22T03:33:05.071Z,25.60
2018-02-22T03:35:32.657Z,20.50
2018-02-22T03:38:01.017Z,23.70
2018-02-22T03:40:29.329Z,22.57
2018-02-22T03:42:56.933Z,23.80
2018-02-22T03:45:24.514Z,20.57
2018-02-22T03:47:52.870Z,19.60
2018-02-22T03:50:20.465Z,20.80
2018-02-22T03:52:48.101Z,23.57
2018-02-22T03:55:15.681Z,21.73
2018-02-22T03:57:44.049Z,21.23
2018-02-22T04:00:11.628Z,19.87
2018-02-22T04:02:39.227Z,15.70
2018-02-22T04:05:06.810Z,15.10
2018-02-22T04:07:34.416Z,22.10
2018-02-22T04:10:01.994Z,24.77
2018-02-22T04:12:29.596Z,17.67
2018-02-22T04:14:57.179Z,25.87
2018-02-22T04:17:25.772Z,19.70
2018-02-22T04:19:53.375Z,19.80
2018-02-22T04:22:20.969Z,19.73
2018-02-22T04:24:49.314Z,22.03
2018-02-22T04:27:16.920Z,23.23
2018-02-22T04:29:45.108Z,24.60
2018-02-22T04:32:12.708Z,24.27
2018-02-22T04:34:40.289Z,25.17
2018-02-22T04:37:07.897Z,18.40
2018-02-22T04:39:35.476Z,20.27
2018-02-22T04:42:03.089Z,21.20
2018-02-22T04:44:31.425Z,13.30
2018-02-22T04:46:59.020Z,15.70
2018-02-22T04:49:26.589Z,23.10
2018-02-22T04:51:54.177Z,22.50
2018-02-22T04:54:21.765Z,14.40
2018-02-22T04:56:50.869Z,14.77
2018-02-22T04:59:18.456Z,16.37
2018-02-22T05:01:46.059Z,20.40
2018-02-22T05:04:13.630Z,17.03
2018-02-22T05:06:41.775Z,12.50
2018-02-22T05:09:09.703Z,17.20
2018-02-22T05:11:37.343Z,19.20
2018-02-22T05:14:04.964Z,13.37
2018-02-22T05:16:32.582Z,18.30
2018-02-22T05:19:00.209Z,18.90
2018-02-22T05:21:27.828Z,18.33
2018-02-22T05:23:55.620Z,13.90
2018-02-22T05:26:23.207Z,19.77
2018-02-22T05:28:50.822Z,19.00
2018-02-22T05:31:18.402Z,19.83
2018-02-22T05:33:46.660Z,12.63
2018-02-22T05:36:14.248Z,17.70
2018-02-22T05:38:42.275Z,15.50
2018-02-22T05:41:10.050Z,17.43
2018-02-22T05:43:38.409Z,13.20
2018-02-22T05:46:06.178Z,18.93
2018-02-22T05:48:33.785Z,18.90
2018-02-22T05:51:01.877Z,17.50
2018-02-22T05:53:30.099Z,17.20
2018-02-22T05:55:58.221Z,11.27
2018-02-22T05:58:26.785Z,19.60
2018-02-22T06:00:54.969Z,16.17
2018-02-22T06:03:22.562Z,15.57
2018-02-22T06:05:50.131Z,17.13
2018-02-22T06:08:17.749Z,13.40
2018-02-22T06:10:47.047Z,16.03
2018-02-22T06:13:14.887Z,14.60
2018-02-22T06:15:42.511Z,20.27
2018-02-22T06:18:10.112Z,17.10
2018-02-22T06:20:37.691Z,18.80
2018-02-22T06:23:05.874Z,12.90
2018-02-22T06:25:33.466Z,19.50
2018-02-22T06:28:01.067Z,14.43
2018-02-22T06:30:28.648Z,20.77
2018-02-22T06:32:56.299Z,17.43
2018-02-22T06:35:23.841Z,15.50
2018-02-22T06:37:51.445Z,14.97
2018-02-22T06:40:19.782Z,20.50
2018-02-22T06:42:47.386Z,15.90
2018-02-22T06:45:14.964Z,20.13
2018-02-22T06:47:42.573Z,17.30
2018-02-22T06:50:10.149Z,20.57
2018-02-22T06:52:38.494Z,18.57
2018-02-22T06:55:06.102Z,15.93
2018-02-22T06:57:33.683Z,18.30
2018-02-22T07:00:01.278Z,19.40
2018-02-22T07:02:28.852Z,16.40
2018-02-22T07:04:56.451Z,17.27
2018-02-22T07:07:24.026Z,18.27
2018-02-22T07:09:51.626Z,11.80
2018-02-22T07:12:19.210Z,14.17
2018-02-22T07:14:46.829Z,17.20
2018-02-22T07:17:14.400Z,19.70
2018-02-22T07:19:42.009Z,18.00
2018-02-22T07:22:09.623Z,16.87
2018-02-22T07:24:37.226Z,19.53
2018-02-22T07:27:04.828Z,15.23
2018-02-22T07:29:32.427Z,17.77
2018-02-22T07:31:59.993Z,15.17
2018-02-22T07:34:28.361Z,18.07
2018-02-22T07:36:56.700Z,14.63
2018-02-22T07:39:24.294Z,15.20
2018-02-22T07:41:52.666Z,15.43
2018-02-22T07:44:20.266Z,18.50
2018-02-22T07:46:47.869Z,20.80
2018-02-22T07:49:15.460Z,18.70
2018-02-22T07:51:43.035Z,19.97
2018-02-22T07:54:10.629Z,22.40
2018-02-22T07:56:38.205Z,21.07
2018-02-22T07:59:05.807Z,20.23
2018-02-22T08:01:33.381Z,22.17
2018-02-22T08:04:00.977Z,21.57
2018-02-22T08:06:28.550Z,21.33
2018-02-22T08:08:56.159Z,19.47
2018-02-22T08:11:23.810Z,12.97
2018-02-22T08:13:51.409Z,15.33
2018-02-22T08:16:19.021Z,18.50
2018-02-22T08:18:46.618Z,22.27
2018-02-22T08:21:14.188Z,20.50
2018-02-22T08:23:41.916Z,21.43
2018-02-22T08:26:09.528Z,18.23
2018-02-22T08:28:37.690Z,21.13
2018-02-22T08:31:05.606Z,18.60
2018-02-22T08:33:34.493Z,22.10
2018-02-22T08:36:02.630Z,19.90
2018-02-22T08:38:30.895Z,21.70
2018-02-22T08:40:58.548Z,22.20
2018-02-22T08:43:26.163Z,24.33
2018-02-22T08:45:53.776Z,20.10
2018-02-22T08:48:21.354Z,18.80
2018-02-22T08:50:49.708Z,12.97
2018-02-22T08:53:17.956Z,23.23
2018-02-22T08:55:46.382Z,16.67
2018-02-22T08:58:13.995Z,23.67
2018-02-22T09:00:41.599Z,20.20
2018-02-22T09:03:09.169Z,22.90
2018-02-22T09:05:37.521Z,24.53
2018-02-22T09:08:05.123Z,21.60
2018-02-22T09:10:32.709Z,17.43
2018-02-22T09:13:00.282Z,22.33
2018-02-22T09:15:27.873Z,19.93
2018-02-22T09:17:55.441Z,22.07
2018-02-22T09:20:23.985Z,23.20
2018-02-22T09:22:51.550Z,21.43
2018-02-22T09:25:19.144Z,17.33
2018-02-22T09:27:46.709Z,15.87
2018-02-22T09:30:15.071Z,23.43
2018-02-22T09:32:43.405Z,24.50
2018-02-22T09:35:10.988Z,22.17
2018-02-22T09:37:38.558Z,21.17
2018-02-22T09:40:06.145Z,20.13
2018-02-22T09:42:34.473Z,21.60
2018-02-22T09:45:02.060Z,21.77
2018-02-22T09:47:30.394Z,21.30
2018-02-22T09:49:57.987Z,13.77
2018-02-22T09:52:25.557Z,21.43
2018-02-22T09:54:53.909Z,23.50
2018-02-22T09:57:21.516Z,18.53
2018-02-22T09:59:49.104Z,20.83
2018-02-22T10:02:16.669Z,22.70
2018-02-22T10:04:44.267Z,23.73
2018-02-22T10:07:11.838Z,22.07
2018-02-22T10:09:40.197Z,21.50
2018-02-22T10:12:07.760Z,19.90
2018-02-22T10:14:35.338Z,22.20
2018-02-22T10:17:02.926Z,22.03
2018-02-22T10:19:30.493Z,20.97
2018-02-22T10:21:58.092Z,21.93
2018-02-22T10:24:25.669Z,17.00
2018-02-22T10:26:53.259Z,18.40
2018-02-22T10:29:20.835Z,20.43
2018-02-22T10:31:48.422Z,19.80
2018-02-22T10:34:15.990Z,20.23
2018-02-22T10:36:43.577Z,20.60
2018-02-22T10:39:11.149Z,20.50
2018-02-22T10:41:38.755Z,20.17
2018-02-22T10:44:06.325Z,19.07
2018-02-22T10:46:33.918Z,18.33
2018-02-22T10:49:01.502Z,19.10
2018-02-22T10:51:29.113Z,19.10
2018-02-22T10:53:57.454Z,18.20
2018-02-22T10:56:25.054Z,18.90
2018-02-22T10:58:53.391Z,17.87
2018-02-22T11:01:26.545Z,20.00
2018-02-22T11:03:54.119Z,20.87
2018-02-22T11:06:21.714Z,20.43
2018-02-22T11:08:49.284Z,19.63
2018-02-22T11:11:16.874Z,18.27
2018-02-22T11:13:44.445Z,19.80
2018-02-22T11:16:12.032Z,18.67
2018-02-22T11:18:39.616Z,18.77
2018-02-22T11:21:07.258Z,15.47
2018-02-22T11:23:34.824Z,16.10
2018-02-22T11:26:02.418Z,21.33
2018-02-22T11:28:30.748Z,18.83
2018-02-22T11:30:58.336Z,17.70
2018-02-22T11:33:25.924Z,16.13
2018-02-22T11:35:53.513Z,17.20
2018-02-22T11:38:21.106Z,16.43
2018-02-22T11:40:48.705Z,16.67
2018-02-22T11:43:16.280Z,17.10
2018-02-22T11:45:43.868Z,17.77
2018-02-22T11:48:11.428Z,15.70
2018-02-22T11:50:39.063Z,15.27
2018-02-22T11:53:06.633Z,14.37
2018-02-22T11:55:34.206Z,15.47
2018-02-22T11:58:01.814Z,17.67
2018-02-22T12:00:30.148Z,17.07
2018-02-22T12:02:57.742Z,14.43
2018-02-22T12:05:26.076Z,13.93
2018-02-22T12:07:53.665Z,15.57
2018-02-22T12:10:21.233Z,12.03
2018-02-22T12:12:49.585Z,15.43
2018-02-22T12:15:17.159Z,17.30
2018-02-22T12:17:44.744Z,14.57
2018-02-22T12:20:13.082Z,15.17
2018-02-22T12:22:40.678Z,14.27
2018-02-22T12:25:09.071Z,16.50
2018-02-22T12:27:36.624Z,15.53
2018-02-22T12:30:04.189Z,17.17
2018-02-22T12:32:31.778Z,15.80
2018-02-22T12:34:59.346Z,12.23
2018-02-22T12:37:26.937Z,15.63
2018-02-22T12:39:55.269Z,9.87
2018-02-22T12:42:22.860Z,13.30
2018-02-22T12:44:50.429Z,15.60
2018-02-22T12:47:18.026Z,14.43
2018-02-22T12:49:45.620Z,14.90
2018-02-22T12:52:13.209Z,13.53
2018-02-22T12:54:41.537Z,13.70
2018-02-22T12:57:09.122Z,13.03
2018-02-22T12:59:36.685Z,13.13
2018-02-22T13:02:04.274Z,14.77
2018-02-22T13:04:32.600Z,13.13
2018-02-22T13:07:00.190Z,12.10
2018-02-22T13:09:27.758Z,12.07
2018-02-22T13:11:55.345Z,11.93
2018-02-22T13:14:22.928Z,10.20
2018-02-22T13:16:50.546Z,11.33
2018-02-22T13:19:18.886Z,13.60
2018-02-22T13:21:46.481Z,10.57
2018-02-22T13:24:14.051Z,9.43
2018-02-22T13:26:41.658Z,10.37
2018-02-22T13:29:09.268Z,11.13
2018-02-22T13:31:37.622Z,9.63
2018-02-22T13:34:16.881Z,10.47
2018-02-22T13:36:44.470Z,10.80
2018-02-22T13:39:12.029Z,9.40
2018-02-22T13:41:39.625Z,10.53
2018-02-22T13:44:18.992Z,10.10
2018-02-22T13:46:46.585Z,10.30
2018-02-22T13:49:26.002Z,10.00
2018-02-22T13:51:53.589Z,9.53
2018-02-22T13:54:21.163Z,8.73
2018-02-22T13:57:00.488Z,8.73
2018-02-22T13:59:28.538Z,8.77
2018-02-22T14:02:07.949Z,10.57
2018-02-22T14:04:35.513Z,9.10
2018-02-22T14:07:03.105Z,7.90
2018-02-22T14:09:30.668Z,7.80
2018-02-22T14:11:58.261Z,7.83
2018-02-22T14:14:25.834Z,7.07
2018-02-22T14:16:53.407Z,7.80
2018-02-22T14:19:21.001Z,6.60
2018-02-22T14:21:48.570Z,7.13
2018-02-22T14:24:16.171Z,7.73
2018-02-22T14:29:17.702Z,4.80
2018-02-22T14:31:45.274Z,7.30
2018-02-22T14:34:12.865Z,6.90
2018-02-22T14:36:41.249Z,6.80
2018-02-22T14:39:08.837Z,6.23
2018-02-22T14:41:36.405Z,6.50
2018-02-22T14:44:03.984Z,5.20
2018-02-22T14:46:31.550Z,6.90
2018-02-22T14:48:59.163Z,6.50
2018-02-22T14:51:27.590Z,5.70
2018-02-22T14:53:55.185Z,6.17
2018-02-22T14:56:22.768Z,6.53
2018-02-22T14:58:50.359Z,6.50
2018-02-22T15:01:17.922Z,5.63
2018-02-22T15:03:45.504Z,6.73
2018-02-22T15:06:13.838Z,6.60
2018-02-22T15:08:41.431Z,6.67
2018-02-22T15:11:09.000Z,4.20
2018-02-22T15:13:36.590Z,5.83
2018-02-22T15:16:04.188Z,7.17
2018-02-22T15:18:31.777Z,5.10
2018-02-22T15:21:00.117Z,5.17
2018-02-22T15:23:27.706Z,6.57
2018-02-22T15:25:56.041Z,6.23
2018-02-22T15:28:23.630Z,5.90
2018-02-22T15:30:51.221Z,5.40
2018-02-22T15:33:18.810Z,6.83
2018-02-22T15:35:46.369Z,6.27
2018-02-22T15:38:13.960Z,5.03
2018-02-22T15:40:41.521Z,6.43
2018-02-22T15:43:09.121Z,4.77
2018-02-22T15:45:36.698Z,5.50
2018-02-22T15:48:04.313Z,5.47
2018-02-22T15:50:32.924Z,5.10
2018-02-22T15:53:00.529Z,5.70
2018-02-22T15:55:28.094Z,6.20
2018-02-22T15:57:55.693Z,6.53
2018-02-22T16:00:23.273Z,5.27
2018-02-22T16:02:50.828Z,5.90
2018-02-22T16:05:18.409Z,5.90
2018-02-22T16:07:45.972Z,6.17
2018-02-22T16:10:13.566Z,6.00
2018-02-22T16:12:41.898Z,6.37
2018-02-22T16:15:09.498Z,5.77
2018-02-22T16:17:37.066Z,6.43
2018-02-22T16:20:04.666Z,5.93
2018-02-22T16:22:32.237Z,6.37
2018-02-22T16:24:59.828Z,5.40
2018-02-22T16:27:27.436Z,5.73
2018-02-22T16:29:55.034Z,6.07
2018-02-22T16:32:22.600Z,5.20
2018-02-22T16:34:50.185Z,7.03
2018-02-22T16:37:17.761Z,6.30
2018-02-22T16:39:45.362Z,6.40
2018-02-22T16:42:12.930Z,6.00
2018-02-22T16:44:40.512Z,4.73
2018-02-22T16:47:08.198Z,7.00
2018-02-22T16:49:35.793Z,6.70
2018-02-22T16:52:03.362Z,7.27
2018-02-22T16:54:30.967Z,5.70
2018-02-22T16:56:58.537Z,6.47
2018-02-22T16:59:26.118Z,7.13
2018-02-22T17:01:53.687Z,7.90
2018-02-22T17:04:21.273Z,7.30
2018-02-22T17:06:48.835Z,6.53
2018-02-22T17:09:16.428Z,7.50
2018-02-22T17:11:44.757Z,7.13
2018-02-22T17:14:12.361Z,7.80
2018-02-22T17:16:40.698Z,6.00
2018-02-22T17:19:08.310Z,7.33
2018-02-22T17:21:35.865Z,6.70
2018-02-22T17:24:03.464Z,7.13
2018-02-22T17:26:36.712Z,7.10
2018-02-22T17:29:10.610Z,8.33
2018-02-22T17:31:44.581Z,6.10
2018-02-22T17:34:12.174Z,7.40
2018-02-22T17:36:43.352Z,7.10
2018-02-22T17:39:16.652Z,6.80
2018-02-22T17:41:44.213Z,8.20
2018-02-22T17:44:11.798Z,7.77
2018-02-22T17:46:39.361Z,9.03
2018-02-22T17:49:06.984Z,7.20
2018-02-22T17:51:34.552Z,8.07
2018-02-22T17:54:02.117Z,7.47
2018-02-22T17:56:29.706Z,9.07
2018-02-22T17:58:57.274Z,7.83
2018-02-22T18:01:25.633Z,8.10
2018-02-22T18:03:53.204Z,7.80
2018-02-22T18:06:20.807Z,9.07
2018-02-22T18:08:48.377Z,9.03
2018-02-22T18:11:15.975Z,9.43
2018-02-22T18:13:43.549Z,10.50
2018-02-22T18:16:12.267Z,9.53
2018-02-22T18:18:39.846Z,8.80
2018-02-22T18:21:07.429Z,8.93
2018-02-22T18:23:35.013Z,8.37
2018-02-22T18:26:02.686Z,8.63
2018-02-22T18:28:31.022Z,10.37
2018-02-22T18:30:58.613Z,7.70
2018-02-22T18:33:26.177Z,9.43
2018-02-22T18:35:54.082Z,7.50
2018-02-22T18:38:21.644Z,8.10
2018-02-22T18:40:54.933Z,7.57
2018-02-22T18:43:28.092Z,9.13
2018-02-22T18:45:56.454Z,7.50
2018-02-22T18:48:24.055Z,7.87
2018-02-22T18:50:51.653Z,8.20
2018-02-22T18:53:19.216Z,8.50
2018-02-22T18:55:46.840Z,8.00
2018-02-22T18:58:14.398Z,9.00
2018-02-22T19:00:42.001Z,8.13
2018-02-22T19:03:09.570Z,8.57
2018-02-22T19:05:37.961Z,8.30
2018-02-22T19:08:05.641Z,9.03
2018-02-22T19:10:33.249Z,7.53
2018-02-22T19:13:00.859Z,8.27
2018-02-22T19:15:28.444Z,8.13
2018-02-22T19:17:57.244Z,9.80
2018-02-22T19:20:25.641Z,8.90
2018-02-22T19:22:53.201Z,8.00
2018-02-22T19:25:21.305Z,9.23
2018-02-22T19:27:49.281Z,9.20
2018-02-22T19:30:17.439Z,10.10
2018-02-22T19:32:45.085Z,8.67
2018-02-22T19:35:12.678Z,11.23
2018-02-22T19:37:40.412Z,73.13
2018-02-22T19:40:08.476Z,9.33
2018-02-22T19:42:36.279Z,7.47
2018-02-22T19:45:04.038Z,9.77
2018-02-22T19:47:31.635Z,10.73
2018-02-22T19:49:59.893Z,10.70
2018-02-22T19:52:28.914Z,11.50
2018-02-22T19:54:56.549Z,9.30
2018-02-22T19:57:24.888Z,10.90
2018-02-22T19:59:52.521Z,7.70
2018-02-22T20:02:20.240Z,10.80
2018-02-22T20:04:47.810Z,11.77
2018-02-22T20:07:15.410Z,10.43
2018-02-22T20:09:43.794Z,10.03
2018-02-22T20:12:12.149Z,7.90
2018-02-22T20:14:39.964Z,18.27
2018-02-22T20:17:08.452Z,9.20
2018-02-22T20:19:36.070Z,11.20
2018-02-22T20:22:04.471Z,9.73
2018-02-22T20:24:32.046Z,8.70
2018-02-22T20:26:59.642Z,10.90
2018-02-22T20:29:27.205Z,10.00
2018-02-22T20:31:54.797Z,10.10
2018-02-22T20:34:22.369Z,9.03
2018-02-22T20:36:50.010Z,10.07
2018-02-22T20:39:17.582Z,10.03
2018-02-22T20:41:45.990Z,9.13
2018-02-22T20:44:13.569Z,10.60
2018-02-22T20:46:41.927Z,11.10
2018-02-22T20:49:10.159Z,9.90
2018-02-22T20:51:41.107Z,7.47
2018-02-22T20:54:09.431Z,9.87
2018-02-22T20:56:37.041Z,10.23
2018-02-22T20:59:04.717Z,10.20
2018-02-22T21:01:32.510Z,8.37
2018-02-22T21:04:00.250Z,10.30
2018-02-22T21:06:27.835Z,9.00
2018-02-22T21:08:55.405Z,10.93
2018-02-22T21:11:23.766Z,9.20
2018-02-22T21:13:51.376Z,9.60
2018-02-22T21:16:19.184Z,9.77
2018-02-22T21:18:47.014Z,11.03
2018-02-22T21:21:14.717Z,11.07
2018-02-22T21:23:42.378Z,11.27
2018-02-22T21:26:10.001Z,10.33
2018-02-22T21:28:38.345Z,9.43
2018-02-22T21:31:05.916Z,10.20
2018-02-22T21:33:33.822Z,9.73
2018-02-22T21:36:01.536Z,11.23
2018-02-22T21:38:29.120Z,9.90
2018-02-22T21:40:58.945Z,11.03
2018-02-22T21:43:26.658Z,11.17
2018-02-22T21:45:54.220Z,10.97
2018-02-22T21:48:21.810Z,10.00
2018-02-22T21:50:49.377Z,11.53
2018-02-22T21:53:16.970Z,10.20
2018-02-22T21:55:44.534Z,10.47
2018-02-22T21:58:12.129Z,11.77
2018-02-22T22:00:39.702Z,11.10
2018-02-22T22:03:08.062Z,11.53
2018-02-22T22:05:35.633Z,10.90
2018-02-22T22:08:03.222Z,9.57
2018-02-22T22:10:30.806Z,10.27
2018-02-22T22:12:58.398Z,10.67
2018-02-22T22:15:25.960Z,9.90
2018-02-22T22:17:53.676Z,10.97
2018-02-22T22:20:21.250Z,12.17
2018-02-22T22:22:48.836Z,9.60
2018-02-22T22:25:16.421Z,11.03
2018-02-22T22:27:44.012Z,9.30
2018-02-22T22:30:11.573Z,11.63
2018-02-22T22:32:39.154Z,10.97
2018-02-22T22:35:07.486Z,10.67
2018-02-22T22:37:35.067Z,10.80
2018-02-22T22:40:02.628Z,9.43
2018-02-22T22:42:30.221Z,11.30
2018-02-22T22:44:57.780Z,11.20
2018-02-22T22:47:25.362Z,9.90
2018-02-22T22:49:53.703Z,11.47
2018-02-22T22:52:21.296Z,11.80
2018-02-22T22:54:48.865Z,11.37
2018-02-22T22:57:17.221Z,11.13
2018-02-22T22:59:45.013Z,10.50
2018-02-22T23:02:12.425Z,9.60
2018-02-22T23:04:40.006Z,11.00
2018-02-22T23:07:08.341Z,12.87
2018-02-22T23:09:35.933Z,9.63
2018-02-22T23:12:03.496Z,11.07
2018-02-22T23:14:31.080Z,10.10
2018-02-22T23:16:59.407Z,9.70
2018-02-22T23:19:26.993Z,9.47
2018-02-22T23:21:54.561Z,9.63
2018-02-22T23:24:22.913Z,9.60
2018-02-22T23:26:50.472Z,9.50
2018-02-22T23:29:18.069Z,10.07
2018-02-22T23:31:45.833Z,11.23
2018-02-22T23:34:13.418Z,10.43
2018-02-22T23:36:40.982Z,9.93
2018-02-22T23:39:08.569Z,9.53
2018-02-22T23:44:43.241Z,10.90
2018-02-22T23:47:10.805Z,8.33
2018-02-22T23:49:38.402Z,10.27
2018-02-22T23:52:05.977Z,12.20
2018-02-22T23:54:33.565Z,10.50
2018-02-22T23:57:01.132Z,10.30
2018-02-22T23:59:28.721Z,10.53
